Flight Track Log - Related Links

Times and Time Zones

All times are in EDT time to prevent confusion due to time zone crossing. See the UAL1243 flight status page for this flight to view local times or setup timezone preferences in your user account.

Time Position Orientation Groundspeed Altitude Reporting Facility
EDT Latitude Longitude Course Direction KTS MPH feet Rate Location/Type
Wed 02:24:00 PM 40.6925 -74.1687 70° East  Level Estimated
Wed 02:25:00 PM 40.6925 -74.1687 102° East  Level Estimated
Wed 02:26:00 PM 40.6925 -74.1687 102° East  Level Estimated
Wed 02:27:00 PM 40.6925 -74.1687 102° East  Level Estimated
Wed 02:28:00 PM 40.6925 -74.1687 102° East  Level Estimated
Wed 02:29:00 PM 40.6925 -74.1687 102° East  Level Estimated
Wed 02:30:00 PM 40.6925 -74.1687 102° East  Level Estimated
Wed 02:31:00 PM 40.6925 -74.1687 102° East  Level Estimated
Wed 02:32:00 PM 40.6925 -74.1687 102° East  Level Estimated
Wed 02:33:00 PM 40.6925 -74.1687 102° East  Level Estimated
Wed 02:34:00 PM 40.6925 -74.1687 102° East  Level Estimated
Wed 02:35:00 PM 40.6925 -74.1687 102° East  Level Estimated
Wed 02:36:00 PM 40.6925 -74.1687 102° East  Level Estimated
Wed 02:37:00 PM 40.6925 -74.1687 102° East  Level Estimated
Wed 02:38:00 PM 40.6925 -74.1687 102° East  Level Estimated
Wed 02:39:00 PM 40.6925 -74.1687 102° East  Level Estimated
Wed 02:40:00 PM 40.6925 -74.1687 102° East  Level Estimated
Wed 02:41:00 PM 40.6925 -74.1687 102° East  Level Estimated
Wed 02:41:33 PM 40.8630 -75.0467 102° East 322 371 8,600  Level FlightAware ADS-B
Wed 02:41:48 PM 40.8549 -75.0188 111° Southeast 321 369 8,200 -1,404 Descending FlightAware ADS-B
Wed 02:42:20 PM 40.8370 -74.9611 112° Southeast 314 361 7,500 -1,317 Descending FlightAware ADS-B
Wed 02:42:29 PM 40.8300 -74.9492 128° Southeast 301 346 7,300 -1,154 Descending FlightAware ADS-B
Wed 02:42:46 PM 40.8149 -74.9258 130° Southeast 294 338 7,000 -563 Descending FlightAware ADS-B
Wed 02:43:01 PM 40.8021 -74.9053 130° Southeast 281 323 7,000  Level FlightAware ADS-B
Wed 02:43:17 PM 40.7894 -74.8845 129° Southeast 265 305 7,000 -171 Level FlightAware ADS-B
Wed 02:43:36 PM 40.7758 -74.8616 128° Southeast 252 290 6,900 -514 Descending FlightAware ADS-B
Wed 02:43:52 PM 40.7642 -74.8418 128° Southeast 247 284 6,700 -818 Descending FlightAware ADS-B
Wed 02:44:20 PM 40.7448 -74.8097 129° Southeast 238 274 6,300 -560 Descending FlightAware ADS-B
Wed 02:45:07 PM 40.7140 -74.7590 129° Southeast 236 272 6,000 -340 Descending FlightAware ADS-B
Wed 02:45:13 PM 40.7083 -74.7501 130° Southeast 236 272 6,000  Level FlightAware ADS-B
Wed 02:45:29 PM 40.6979 -74.7332 129° Southeast 236 272 6,000  Level FlightAware ADS-B
Wed 02:45:44 PM 40.6873 -74.7160 129° Southeast 236 272 6,000  Level FlightAware ADS-B
Wed 02:45:52 PM 40.6821 -74.7061 125° Southeast 239 275 6,000  Level FlightAware ADS-B
Wed 02:45:58 PM 40.6794 -74.6979 113° Southeast 245 282 6,000  Level FlightAware ADS-B
Wed 02:46:03 PM 40.6781 -74.6910 104° East 249 287 6,000  Level FlightAware ADS-B
Wed 02:46:09 PM 40.6775 -74.6816 95° East 254 292 6,000  Level FlightAware ADS-B
Wed 02:46:13 PM 40.6779 -74.6750 85° East 258 297 6,000  Level FlightAware ADS-B
Wed 02:46:21 PM 40.6806 -74.6625 74° East 261 300 6,000  Level FlightAware ADS-B
Wed 02:46:32 PM 40.6874 -74.6479 58° Northeast 266 306 6,000  Level FlightAware ADS-B
Wed 02:46:38 PM 40.6924 -74.6414 45° Northeast 266 306 6,000  Level FlightAware ADS-B
Wed 02:46:57 PM 40.7104 -74.6219 39° Northeast 265 305 6,000  Level FlightAware ADS-B
Wed 02:47:30 PM 40.7446 -74.5960 30° Northeast 259 298 6,000  Level FlightAware ADS-B
Wed 02:48:16 PM 40.7983 -74.5800 13° North 257 296 6,000  Level FlightAware ADS-B
Wed 02:48:31 PM 40.8162 -74.5746 13° North 257 296 6,000  Level FlightAware ADS-B
Wed 02:48:52 PM 40.8401 -74.5674 13° North 258 297 6,000  Level FlightAware ADS-B
Wed 02:49:12 PM 40.8631 -74.5605 13° North 258 297 6,000  Level FlightAware ADS-B
Wed 02:49:52 PM 40.9070 -74.5480 12° North 257 296 6,000  Level FlightAware ADS-B
Wed 02:50:19 PM 40.9408 -74.5375 13° North 258 297 6,000  Level FlightAware ADS-B
Wed 02:50:45 PM 40.9712 -74.5284 13° North 257 296 6,000  Level FlightAware ADS-B
Wed 02:51:32 PM 41.0230 -74.5130 13° North 256 295 6,000  Level FlightAware ADS-B
Wed 02:51:57 PM 41.0520 -74.5040 13° North 256 295 6,000  Level FlightAware ADS-B
Wed 02:52:22 PM 41.0780 -74.4960 13° North 256 295 6,000  Level FlightAware ADS-B
Wed 02:53:12 PM 41.1380 -74.4780 13° North 257 296 6,000 -338 Level FlightAware ADS-B
Wed 02:57:42 PM 41.0680 -74.2060 109° East 191 220 4,200 -366 Descending FlightAware ADS-B
Wed 02:58:07 PM 41.0510 -74.1910 146° Southeast 191 220 4,200 -112 Level FlightAware ADS-B
Wed 02:59:29 PM 40.9984 -74.1367 142° Southeast 203 234 4,000 -120 Descending FlightAware ADS-B
Wed 02:59:47 PM 40.9900 -74.1180 121° Southeast 204 235 4,000  Level FlightAware ADS-B
Wed 02:59:58 PM 40.9848 -74.1066 121° Southeast 203 234 4,000 -429 Level FlightAware ADS-B
Wed 03:00:01 PM 40.9828 -74.1032 128° Southeast 202 232 3,900 -1,200 Descending FlightAware ADS-B
Wed 03:00:08 PM 40.9783 -74.0983 141° Southeast 195 224 3,800 -1,091 Descending FlightAware ADS-B
Wed 03:00:12 PM 40.9747 -74.0960 154° Southeast 189 217 3,700 -1,200 Descending FlightAware ADS-B
Wed 03:00:18 PM 40.9701 -74.0944 165° South 184 212 3,600 -1,091 Descending FlightAware ADS-B
Wed 03:00:23 PM 40.9660 -74.0933 169° South 183 211 3,500 -1,385 Descending FlightAware ADS-B
Wed 03:00:31 PM 40.9593 -74.0919 171° South 185 213 3,300 -1,600 Descending FlightAware ADS-B
Wed 03:00:38 PM 40.9528 -74.0907 172° South 185 213 3,100 -783 Descending FlightAware ADS-B
Wed 03:00:54 PM 40.9394 -74.0886 173° South 182 209 3,000 -194 Descending FlightAware ADS-B
Wed 03:01:09 PM 40.9266 -74.0866 173° South 182 209 3,000  Level FlightAware ADS-B
Wed 03:01:21 PM 40.9173 -74.0850 173° South 183 211 3,000  Level FlightAware ADS-B
Wed 03:01:36 PM 40.9044 -74.0829 173° South 182 209 3,000  Level FlightAware ADS-B
Wed 03:01:51 PM 40.8915 -74.0806 172° South 183 211 3,000  Level FlightAware ADS-B
Wed 03:02:19 PM 40.8682 -74.0768 173° South 183 211 3,000  Level FlightAware ADS-B
Wed 03:02:34 PM 40.8555 -74.0745 172° South 181 208 3,000  Level FlightAware ADS-B
Wed 03:02:44 PM 40.8478 -74.0731 172° South 181 208 3,000  Level FlightAware ADS-B
Wed 03:02:53 PM 40.8400 -74.0731 180° South 178 205 3,000  Level FlightAware ADS-B
Wed 03:02:57 PM 40.8370 -74.0740 193° South 176 203 3,000  Level FlightAware ADS-B
Wed 03:03:02 PM 40.8333 -74.0756 198° South 173 199 3,000 -750 Level FlightAware ADS-B
Wed 03:03:05 PM 40.8309 -74.0768 201° Southwest 172 198 2,900 -1,333 Descending FlightAware ADS-B
Wed 03:03:11 PM 40.8266 -74.0794 205° Southwest 171 197 2,800 -750 Descending FlightAware ADS-B
Wed 03:03:21 PM 40.8197 -74.0836 205° Southwest 173 199 2,700 -900 Descending FlightAware ADS-B
Wed 03:03:31 PM 40.8120 -74.0886 206° Southwest 173 199 2,500 -938 Descending FlightAware ADS-B
Wed 03:03:53 PM 40.7968 -74.0984 206° Southwest 173 199 2,200 -811 Descending FlightAware ADS-B
Wed 03:04:08 PM 40.7856 -74.1055 206° Southwest 174 200 2,000 -783 Descending FlightAware ADS-B
Wed 03:04:16 PM 40.7802 -74.1090 206° Southwest 171 197 1,900 -1,059 Descending FlightAware ADS-B
Wed 03:04:25 PM 40.7735 -74.1132 205° Southwest 162 186 1,700 -947 Descending FlightAware ADS-B
Wed 03:04:35 PM 40.7672 -74.1172 206° Southwest 156 180 1,600 -750 Descending FlightAware ADS-B
Wed 03:04:49 PM 40.7583 -74.1228 205° Southwest 147 169 1,400 -800 Descending FlightAware ADS-B
Wed 03:05:05 PM 40.7487 -74.1291 206° Southwest 144 166 1,200 -774 Descending FlightAware ADS-B
Wed 03:05:20 PM 40.7400 -74.1348 206° Southwest 142 163 1,000 -938 Descending FlightAware ADS-B
Wed 03:05:37 PM 40.7296 -74.1414 206° Southwest 141 162 700 -762 Descending FlightAware ADS-B
Wed 03:06:23 PM 40.7016 -74.1590 205° Southwest 151 174 200 -652 Descending FlightAware ADS-B

Login

Don't have an account? Register now (free) for customized features, flight alerts, and more!